DHK6048 VCBI-VOBL
Flight info
| Callsign | DHK6048 |
|---|---|
| Flight time | 1h 5m |
| Altitude | 36000 |
| Route | ATETA1D/22 ATETA T4 TTR W42 ADKAL |
| Aircraft | A333/H-SDE/L |
Departure
| Time | 2026-04-29 09:32 |
|---|---|
| Airport | Bandaranaike International Colombo Airport (VCBI) |
Arrival
| Time | 2026-04-29 10:38 |
|---|---|
| Airport | Kempegowda International Airport Bengaluru (VOBL) |
| Time | Latitude | Longitude | Altitude | Speed | Heading |
|---|---|---|---|---|---|
| 2026-04-29 09:20 | 7.17188 | 79.88202 | 37 ft | 0 kts | 217° |
| 2026-04-29 09:22 | 7.17196 | 79.88208 | 37 ft | 3 kts | 218° |
| 2026-04-29 09:22 | 7.17209 | 79.88224 | 35 ft | 3 kts | 264° |
| 2026-04-29 09:22 | 7.17206 | 79.88243 | 34 ft | 2 kts | 307° |
| 2026-04-29 09:22 | 7.17205 | 79.88245 | 34 ft | 0 kts | 307° |
| 2026-04-29 09:26 | 7.17209 | 79.88241 | 37 ft | 2 kts | 311° |
| 2026-04-29 09:26 | 7.17226 | 79.88232 | 37 ft | 4 kts | 337° |
| 2026-04-29 09:26 | 7.17258 | 79.88218 | 37 ft | 6 kts | 337° |
| 2026-04-29 09:26 | 7.17299 | 79.88189 | 55 ft | 8 kts | 315° |
| 2026-04-29 09:27 | 7.17340 | 79.88143 | 37 ft | 10 kts | 310° |
| 2026-04-29 09:27 | 7.17392 | 79.88095 | 37 ft | 10 kts | 340° |
| 2026-04-29 09:27 | 7.17464 | 79.88114 | 37 ft | 12 kts | 31° |
| 2026-04-29 09:27 | 7.17535 | 79.88167 | 37 ft | 14 kts | 37° |
| 2026-04-29 09:28 | 7.17617 | 79.88232 | 38 ft | 16 kts | 38° |
| 2026-04-29 09:28 | 7.17710 | 79.88302 | 38 ft | 18 kts | 37° |
| 2026-04-29 09:28 | 7.17811 | 79.88382 | 38 ft | 20 kts | 38° |
| 2026-04-29 09:28 | 7.17924 | 79.88467 | 38 ft | 21 kts | 37° |
| 2026-04-29 09:29 | 7.18053 | 79.88564 | 38 ft | 25 kts | 37° |
| 2026-04-29 09:29 | 7.18353 | 79.88791 | 38 ft | 29 kts | 37° |
| 2026-04-29 09:29 | 7.18520 | 79.88919 | 39 ft | 31 kts | 37° |
| 2026-04-29 09:30 | 7.18637 | 79.89009 | 39 ft | 32 kts | 38° |
| 2026-04-29 09:30 | 7.18826 | 79.89154 | 39 ft | 23 kts | 37° |
| 2026-04-29 09:30 | 7.18912 | 79.89220 | 39 ft | 23 kts | 37° |
| 2026-04-29 09:30 | 7.19039 | 79.89316 | 39 ft | 24 kts | 37° |
| 2026-04-29 09:31 | 7.19174 | 79.89413 | 39 ft | 22 kts | 15° |
| 2026-04-29 09:31 | 7.19279 | 79.89328 | 39 ft | 20 kts | 293° |
| 2026-04-29 09:31 | 7.19223 | 79.89228 | 39 ft | 16 kts | 218° |
| 2026-04-29 09:31 | 7.19071 | 79.89112 | 40 ft | 52 kts | 217° |
| 2026-04-29 09:32 | 7.18625 | 79.88773 | 40 ft | 107 kts | 217° |
| 2026-04-29 09:32 | 7.17902 | 79.88222 | 39 ft | 152 kts | 217° |
| 2026-04-29 09:32 | 7.16987 | 79.87511 | 299 ft | 172 kts | 220° |
| 2026-04-29 09:32 | 7.16068 | 79.86764 | 930 ft | 168 kts | 221° |
| 2026-04-29 09:33 | 7.15557 | 79.85728 | 1427 ft | 177 kts | 264° |
| 2026-04-29 09:33 | 7.15934 | 79.84465 | 1680 ft | 202 kts | 293° |
| 2026-04-29 09:33 | 7.16603 | 79.83151 | 1894 ft | 220 kts | 291° |
| 2026-04-29 09:33 | 7.17189 | 79.81650 | 2084 ft | 241 kts | 285° |
| 2026-04-29 09:34 | 7.17761 | 79.79980 | 2363 ft | 261 kts | 291° |
| 2026-04-29 09:34 | 7.18953 | 79.78585 | 3023 ft | 272 kts | 326° |
| 2026-04-29 09:34 | 7.20790 | 79.78116 | 3594 ft | 282 kts | 5° |
| 2026-04-29 09:34 | 7.22607 | 79.78841 | 4173 ft | 287 kts | 39° |
| 2026-04-29 09:35 | 7.23894 | 79.80337 | 4952 ft | 282 kts | 57° |
| 2026-04-29 09:35 | 7.25216 | 79.81804 | 5622 ft | 289 kts | 35° |
| 2026-04-29 09:35 | 7.27050 | 79.82592 | 6375 ft | 289 kts | 9° |
| 2026-04-29 09:35 | 7.29047 | 79.82655 | 7104 ft | 289 kts | 357° |
| 2026-04-29 09:36 | 7.31076 | 79.82494 | 7760 ft | 294 kts | 355° |
| 2026-04-29 09:36 | 7.33129 | 79.82296 | 8393 ft | 299 kts | 355° |
| 2026-04-29 09:36 | 7.35205 | 79.82098 | 9150 ft | 300 kts | 355° |
| 2026-04-29 09:36 | 7.37261 | 79.81908 | 9924 ft | 300 kts | 356° |
| 2026-04-29 09:37 | 7.39376 | 79.81719 | 10389 ft | 312 kts | 356° |
| 2026-04-29 09:37 | 7.41607 | 79.81523 | 10659 ft | 330 kts | 357° |
| 2026-04-29 09:37 | 7.43958 | 79.81318 | 10923 ft | 347 kts | 356° |
| 2026-04-29 09:37 | 7.46404 | 79.81105 | 11325 ft | 357 kts | 357° |
| 2026-04-29 09:38 | 7.48899 | 79.80887 | 11852 ft | 362 kts | 358° |
| 2026-04-29 09:38 | 7.51426 | 79.80666 | 12436 ft | 366 kts | 356° |
| 2026-04-29 09:38 | 7.53970 | 79.80444 | 13057 ft | 368 kts | 357° |
| 2026-04-29 09:38 | 7.56535 | 79.80219 | 13654 ft | 371 kts | 357° |
| 2026-04-29 09:39 | 7.59127 | 79.79992 | 14182 ft | 374 kts | 357° |
| 2026-04-29 09:39 | 7.61736 | 79.79764 | 14673 ft | 378 kts | 356° |
| 2026-04-29 09:39 | 7.64366 | 79.79534 | 15170 ft | 380 kts | 356° |
| 2026-04-29 09:39 | 7.67011 | 79.79303 | 15673 ft | 383 kts | 357° |
| 2026-04-29 09:40 | 7.69685 | 79.79070 | 16140 ft | 387 kts | 357° |
| 2026-04-29 09:40 | 7.72376 | 79.78835 | 16632 ft | 390 kts | 357° |
| 2026-04-29 09:40 | 7.75092 | 79.78598 | 17095 ft | 393 kts | 356° |
| 2026-04-29 09:40 | 7.77831 | 79.78359 | 17535 ft | 396 kts | 357° |
| 2026-04-29 09:41 | 7.80591 | 79.78117 | 18000 ft | 400 kts | 356° |
| 2026-04-29 09:41 | 7.83375 | 79.77874 | 18429 ft | 402 kts | 357° |
| 2026-04-29 09:41 | 7.86140 | 79.77633 | 18815 ft | 405 kts | 356° |
| 2026-04-29 09:41 | 7.88959 | 79.77387 | 19178 ft | 408 kts | 357° |
| 2026-04-29 09:42 | 7.91798 | 79.77140 | 19582 ft | 410 kts | 356° |
| 2026-04-29 09:42 | 7.94651 | 79.76890 | 19982 ft | 412 kts | 357° |
| 2026-04-29 09:42 | 7.97520 | 79.76639 | 20351 ft | 415 kts | 356° |
| 2026-04-29 09:42 | 8.00401 | 79.76388 | 20710 ft | 418 kts | 357° |
| 2026-04-29 09:43 | 8.03308 | 79.76134 | 21096 ft | 420 kts | 356° |
| 2026-04-29 09:43 | 8.06236 | 79.75878 | 21451 ft | 422 kts | 356° |
| 2026-04-29 09:43 | 8.09168 | 79.75622 | 21808 ft | 425 kts | 357° |
| 2026-04-29 09:43 | 8.12121 | 79.75363 | 22170 ft | 427 kts | 357° |
| 2026-04-29 09:44 | 8.15093 | 79.75104 | 22531 ft | 430 kts | 357° |
| 2026-04-29 09:44 | 8.18084 | 79.74842 | 22875 ft | 432 kts | 357° |
| 2026-04-29 09:44 | 8.21089 | 79.74579 | 23221 ft | 435 kts | 357° |
| 2026-04-29 09:44 | 8.24117 | 79.74314 | 23539 ft | 437 kts | 356° |
| 2026-04-29 09:45 | 8.27158 | 79.74048 | 23822 ft | 440 kts | 356° |
| 2026-04-29 09:45 | 8.30216 | 79.73780 | 24101 ft | 442 kts | 357° |
| 2026-04-29 09:45 | 8.33283 | 79.73512 | 24403 ft | 444 kts | 356° |
| 2026-04-29 09:45 | 8.36367 | 79.73242 | 24695 ft | 446 kts | 356° |
| 2026-04-29 09:46 | 8.39462 | 79.72971 | 24966 ft | 448 kts | 356° |
| 2026-04-29 09:46 | 8.42573 | 79.72698 | 25260 ft | 450 kts | 356° |
| 2026-04-29 09:46 | 8.45695 | 79.72425 | 25554 ft | 451 kts | 356° |
| 2026-04-29 09:46 | 8.48835 | 79.72150 | 25818 ft | 454 kts | 356° |
| 2026-04-29 09:47 | 8.51948 | 79.71877 | 26095 ft | 455 kts | 356° |
| 2026-04-29 09:47 | 8.55114 | 79.71600 | 26385 ft | 457 kts | 356° |
| 2026-04-29 09:47 | 8.58330 | 79.71318 | 26648 ft | 459 kts | 356° |
| 2026-04-29 09:47 | 8.61526 | 79.71038 | 26907 ft | 462 kts | 356° |
| 2026-04-29 09:48 | 8.64730 | 79.70757 | 27220 ft | 463 kts | 356° |
| 2026-04-29 09:48 | 8.67946 | 79.70475 | 27459 ft | 465 kts | 356° |
| 2026-04-29 09:48 | 8.71136 | 79.70195 | 27716 ft | 467 kts | 356° |
| 2026-04-29 09:48 | 8.74377 | 79.69911 | 28002 ft | 468 kts | 356° |
| 2026-04-29 09:49 | 8.77628 | 79.69626 | 28266 ft | 470 kts | 356° |
| 2026-04-29 09:49 | 8.80899 | 79.69339 | 28486 ft | 473 kts | 356° |
| 2026-04-29 09:49 | 8.84185 | 79.69050 | 28770 ft | 474 kts | 356° |
| 2026-04-29 09:49 | 8.87472 | 79.68762 | 29020 ft | 475 kts | 356° |
| 2026-04-29 09:50 | 8.90776 | 79.68472 | 29209 ft | 478 kts | 356° |
| 2026-04-29 09:50 | 8.94096 | 79.68180 | 29476 ft | 479 kts | 356° |
| 2026-04-29 09:50 | 8.97414 | 79.67888 | 29864 ft | 477 kts | 355° |
| 2026-04-29 09:50 | 9.00723 | 79.67597 | 30127 ft | 477 kts | 356° |
| 2026-04-29 09:51 | 9.04039 | 79.67306 | 30313 ft | 479 kts | 356° |
| 2026-04-29 09:51 | 9.07362 | 79.67014 | 30512 ft | 480 kts | 355° |
| 2026-04-29 09:51 | 9.10698 | 79.66721 | 30677 ft | 482 kts | 356° |
| 2026-04-29 09:51 | 9.14046 | 79.66427 | 30854 ft | 483 kts | 355° |
| 2026-04-29 09:52 | 9.17397 | 79.66132 | 31073 ft | 484 kts | 355° |
| 2026-04-29 09:52 | 9.20754 | 79.65837 | 31251 ft | 485 kts | 356° |
| 2026-04-29 09:52 | 9.24124 | 79.65541 | 31430 ft | 486 kts | 355° |
| 2026-04-29 09:52 | 9.27499 | 79.65223 | 31656 ft | 486 kts | 353° |
| 2026-04-29 09:53 | 9.30774 | 79.64583 | 31904 ft | 486 kts | 345° |
| 2026-04-29 09:53 | 9.33964 | 79.63362 | 32251 ft | 482 kts | 333° |
| 2026-04-29 09:53 | 9.36901 | 79.61739 | 32551 ft | 481 kts | 329° |
| 2026-04-29 09:53 | 9.39773 | 79.59991 | 32745 ft | 481 kts | 328° |
| 2026-04-29 09:54 | 9.42609 | 79.58184 | 32931 ft | 482 kts | 327° |
| 2026-04-29 09:54 | 9.45400 | 79.56375 | 33132 ft | 482 kts | 327° |
| 2026-04-29 09:54 | 9.48266 | 79.54516 | 33334 ft | 483 kts | 327° |
| 2026-04-29 09:54 | 9.51097 | 79.52690 | 33546 ft | 483 kts | 327° |
| 2026-04-29 09:55 | 9.53912 | 79.50885 | 33707 ft | 485 kts | 327° |
| 2026-04-29 09:55 | 9.56771 | 79.49063 | 33896 ft | 485 kts | 327° |
| 2026-04-29 09:55 | 9.59620 | 79.47252 | 34142 ft | 483 kts | 327° |
| 2026-04-29 09:55 | 9.62469 | 79.45445 | 34340 ft | 483 kts | 327° |
| 2026-04-29 09:56 | 9.65315 | 79.43641 | 34600 ft | 481 kts | 327° |
| 2026-04-29 09:56 | 9.68156 | 79.41840 | 34833 ft | 479 kts | 327° |
| 2026-04-29 09:56 | 9.70947 | 79.40069 | 35401 ft | 469 kts | 327° |
| 2026-04-29 09:56 | 9.73705 | 79.38319 | 35729 ft | 466 kts | 327° |
| 2026-04-29 09:57 | 9.79216 | 79.34818 | 35803 ft | 468 kts | 327° |
| 2026-04-29 09:57 | 9.84734 | 79.31311 | 35800 ft | 468 kts | 327° |
| 2026-04-29 09:58 | 9.90264 | 79.27796 | 35794 ft | 469 kts | 327° |
| 2026-04-29 09:58 | 9.95798 | 79.24277 | 35792 ft | 469 kts | 327° |
| 2026-04-29 09:59 | 10.01320 | 79.20764 | 35792 ft | 468 kts | 327° |
| 2026-04-29 09:59 | 10.06804 | 79.17275 | 35789 ft | 468 kts | 327° |
| 2026-04-29 10:00 | 10.12310 | 79.13769 | 35791 ft | 468 kts | 327° |
| 2026-04-29 10:00 | 10.17859 | 79.10233 | 35787 ft | 467 kts | 327° |
| 2026-04-29 10:01 | 10.23364 | 79.06726 | 35783 ft | 467 kts | 326° |
| 2026-04-29 10:01 | 10.28836 | 79.03237 | 35780 ft | 468 kts | 326° |
| 2026-04-29 10:02 | 10.34362 | 78.99712 | 35776 ft | 470 kts | 326° |
| 2026-04-29 10:02 | 10.39934 | 78.96157 | 35772 ft | 469 kts | 327° |
| 2026-04-29 10:03 | 10.45450 | 78.92637 | 35771 ft | 467 kts | 326° |
| 2026-04-29 10:03 | 10.50907 | 78.89152 | 35775 ft | 466 kts | 327° |
| 2026-04-29 10:04 | 10.56406 | 78.85639 | 35758 ft | 467 kts | 327° |
| 2026-04-29 10:04 | 10.61910 | 78.82121 | 35758 ft | 467 kts | 326° |
| 2026-04-29 10:05 | 10.67408 | 78.78606 | 35752 ft | 467 kts | 326° |
| 2026-04-29 10:05 | 10.72906 | 78.75089 | 35751 ft | 466 kts | 326° |
| 2026-04-29 10:06 | 10.78605 | 78.71948 | 35747 ft | 468 kts | 335° |
| 2026-04-29 10:06 | 10.84616 | 78.69383 | 35747 ft | 469 kts | 336° |
| 2026-04-29 10:07 | 10.90667 | 78.66883 | 35746 ft | 470 kts | 337° |
| 2026-04-29 10:07 | 10.96744 | 78.64382 | 35749 ft | 471 kts | 337° |
| 2026-04-29 10:08 | 11.02823 | 78.61880 | 35750 ft | 471 kts | 337° |
| 2026-04-29 10:08 | 11.08907 | 78.59377 | 35752 ft | 471 kts | 337° |
| 2026-04-29 10:09 | 11.14988 | 78.56873 | 35760 ft | 471 kts | 336° |
| 2026-04-29 10:09 | 11.21037 | 78.54381 | 35760 ft | 471 kts | 336° |
| 2026-04-29 10:10 | 11.27116 | 78.51876 | 35757 ft | 471 kts | 336° |
| 2026-04-29 10:10 | 11.33205 | 78.49366 | 35759 ft | 471 kts | 336° |
| 2026-04-29 10:11 | 11.36267 | 78.48102 | 35454 ft | 478 kts | 336° |
| 2026-04-29 10:11 | 11.38314 | 78.47258 | 35025 ft | 481 kts | 336° |
| 2026-04-29 10:11 | 11.41422 | 78.45976 | 34064 ft | 482 kts | 336° |
| 2026-04-29 10:11 | 11.44547 | 78.44688 | 32819 ft | 486 kts | 336° |
| 2026-04-29 10:12 | 11.47674 | 78.43398 | 31894 ft | 482 kts | 336° |
| 2026-04-29 10:12 | 11.50763 | 78.42124 | 31121 ft | 474 kts | 336° |
| 2026-04-29 10:12 | 11.53786 | 78.40876 | 30542 ft | 463 kts | 336° |
| 2026-04-29 10:12 | 11.56736 | 78.39659 | 30082 ft | 453 kts | 336° |
| 2026-04-29 10:13 | 11.59650 | 78.38454 | 29534 ft | 451 kts | 336° |
| 2026-04-29 10:13 | 11.62551 | 78.37255 | 29004 ft | 448 kts | 336° |
| 2026-04-29 10:13 | 11.65432 | 78.36063 | 28508 ft | 445 kts | 336° |
| 2026-04-29 10:13 | 11.68292 | 78.34880 | 28015 ft | 442 kts | 336° |
| 2026-04-29 10:14 | 11.71137 | 78.33703 | 27516 ft | 440 kts | 337° |
| 2026-04-29 10:14 | 11.73967 | 78.32532 | 27010 ft | 438 kts | 337° |
| 2026-04-29 10:14 | 11.76785 | 78.31366 | 26518 ft | 436 kts | 337° |
| 2026-04-29 10:14 | 11.79585 | 78.30207 | 26016 ft | 434 kts | 337° |
| 2026-04-29 10:15 | 11.82384 | 78.29048 | 25528 ft | 433 kts | 337° |
| 2026-04-29 10:15 | 11.85179 | 78.27897 | 25030 ft | 432 kts | 336° |
| 2026-04-29 10:15 | 11.87976 | 78.26768 | 24507 ft | 432 kts | 337° |
| 2026-04-29 10:15 | 11.90768 | 78.25648 | 24002 ft | 432 kts | 338° |
| 2026-04-29 10:16 | 11.93561 | 78.24527 | 23499 ft | 431 kts | 338° |
| 2026-04-29 10:16 | 11.96348 | 78.23408 | 22960 ft | 430 kts | 338° |
| 2026-04-29 10:16 | 11.99131 | 78.22290 | 22431 ft | 428 kts | 338° |
| 2026-04-29 10:16 | 12.01887 | 78.21183 | 21943 ft | 425 kts | 338° |
| 2026-04-29 10:17 | 12.04629 | 78.20081 | 21457 ft | 422 kts | 338° |
| 2026-04-29 10:17 | 12.07316 | 78.19001 | 20979 ft | 418 kts | 338° |
| 2026-04-29 10:17 | 12.10014 | 78.17916 | 20508 ft | 415 kts | 338° |
| 2026-04-29 10:17 | 12.12724 | 78.16826 | 20018 ft | 412 kts | 338° |
| 2026-04-29 10:18 | 12.15380 | 78.15758 | 19563 ft | 409 kts | 338° |
| 2026-04-29 10:18 | 12.17981 | 78.14711 | 19092 ft | 405 kts | 339° |
| 2026-04-29 10:18 | 12.20592 | 78.13660 | 18636 ft | 402 kts | 339° |
| 2026-04-29 10:18 | 12.23185 | 78.12616 | 18169 ft | 399 kts | 339° |
| 2026-04-29 10:19 | 12.25760 | 78.11580 | 17656 ft | 396 kts | 339° |
| 2026-04-29 10:19 | 12.28304 | 78.10554 | 17172 ft | 391 kts | 339° |
| 2026-04-29 10:19 | 12.30826 | 78.09538 | 16751 ft | 387 kts | 339° |
| 2026-04-29 10:19 | 12.33317 | 78.08534 | 16303 ft | 383 kts | 339° |
| 2026-04-29 10:20 | 12.35780 | 78.07542 | 15853 ft | 379 kts | 340° |
| 2026-04-29 10:20 | 12.38221 | 78.06558 | 15419 ft | 375 kts | 340° |
| 2026-04-29 10:20 | 12.40643 | 78.05581 | 14982 ft | 372 kts | 340° |
| 2026-04-29 10:20 | 12.43037 | 78.04615 | 14543 ft | 369 kts | 340° |
| 2026-04-29 10:21 | 12.45420 | 78.03655 | 14104 ft | 367 kts | 340° |
| 2026-04-29 10:21 | 12.47793 | 78.02698 | 13685 ft | 365 kts | 341° |
| 2026-04-29 10:21 | 12.50151 | 78.01747 | 13187 ft | 363 kts | 341° |
| 2026-04-29 10:21 | 12.52490 | 78.00803 | 12772 ft | 360 kts | 340° |
| 2026-04-29 10:22 | 12.54812 | 77.99866 | 12347 ft | 357 kts | 340° |
| 2026-04-29 10:22 | 12.57114 | 77.98937 | 11924 ft | 354 kts | 340° |
| 2026-04-29 10:22 | 12.59373 | 77.98025 | 11502 ft | 352 kts | 340° |
| 2026-04-29 10:22 | 12.61652 | 77.97105 | 11047 ft | 352 kts | 340° |
| 2026-04-29 10:23 | 12.63894 | 77.96199 | 10920 ft | 340 kts | 340° |
| 2026-04-29 10:23 | 12.66060 | 77.95323 | 10856 ft | 331 kts | 340° |
| 2026-04-29 10:23 | 12.68197 | 77.94460 | 10687 ft | 328 kts | 340° |
| 2026-04-29 10:23 | 12.70286 | 77.93614 | 10524 ft | 318 kts | 340° |
| 2026-04-29 10:24 | 12.72313 | 77.92794 | 10397 ft | 307 kts | 340° |
| 2026-04-29 10:24 | 12.74272 | 77.92002 | 10265 ft | 298 kts | 340° |
| 2026-04-29 10:24 | 12.76170 | 77.91234 | 10135 ft | 288 kts | 340° |
| 2026-04-29 10:24 | 12.78011 | 77.90489 | 10003 ft | 280 kts | 340° |
| 2026-04-29 10:25 | 12.79799 | 77.89766 | 9895 ft | 272 kts | 340° |
| 2026-04-29 10:25 | 12.81532 | 77.89065 | 9781 ft | 263 kts | 340° |
| 2026-04-29 10:25 | 12.83215 | 77.88384 | 9574 ft | 256 kts | 341° |
| 2026-04-29 10:25 | 12.84867 | 77.87717 | 9198 ft | 255 kts | 340° |
| 2026-04-29 10:26 | 12.86533 | 77.87157 | 8930 ft | 256 kts | 352° |
| 2026-04-29 10:26 | 12.88307 | 77.86975 | 8878 ft | 257 kts | 359° |
| 2026-04-29 10:26 | 12.90089 | 77.86908 | 8817 ft | 256 kts | 0° |
| 2026-04-29 10:26 | 12.91868 | 77.86859 | 8743 ft | 255 kts | 0° |
| 2026-04-29 10:27 | 12.95415 | 77.86756 | 8623 ft | 254 kts | 359° |
| 2026-04-29 10:27 | 12.97184 | 77.86702 | 8554 ft | 254 kts | 360° |
| 2026-04-29 10:27 | 12.98955 | 77.86647 | 8488 ft | 254 kts | 360° |
| 2026-04-29 10:28 | 13.00725 | 77.86590 | 8409 ft | 254 kts | 360° |
| 2026-04-29 10:28 | 13.02494 | 77.86534 | 8340 ft | 254 kts | 359° |
| 2026-04-29 10:28 | 13.04262 | 77.86477 | 8258 ft | 253 kts | 359° |
| 2026-04-29 10:28 | 13.06024 | 77.86421 | 8204 ft | 254 kts | 360° |
| 2026-04-29 10:29 | 13.07782 | 77.86465 | 8132 ft | 252 kts | 12° |
| 2026-04-29 10:29 | 13.09358 | 77.87157 | 8065 ft | 247 kts | 41° |
| 2026-04-29 10:29 | 13.10335 | 77.88562 | 8001 ft | 243 kts | 73° |
| 2026-04-29 10:29 | 13.10578 | 77.90243 | 7925 ft | 242 kts | 89° |
| 2026-04-29 10:30 | 13.10574 | 77.91975 | 7866 ft | 243 kts | 91° |
| 2026-04-29 10:30 | 13.10537 | 77.93709 | 7795 ft | 244 kts | 91° |
| 2026-04-29 10:30 | 13.10504 | 77.95472 | 7724 ft | 244 kts | 91° |
| 2026-04-29 10:30 | 13.10480 | 77.97186 | 7599 ft | 243 kts | 91° |
| 2026-04-29 10:31 | 13.10592 | 77.98932 | 7534 ft | 243 kts | 74° |
| 2026-04-29 10:31 | 13.11416 | 78.00384 | 7476 ft | 238 kts | 44° |
| 2026-04-29 10:31 | 13.12812 | 78.01168 | 7453 ft | 226 kts | 13° |
| 2026-04-29 10:31 | 13.14331 | 78.01289 | 7401 ft | 214 kts | 1° |
| 2026-04-29 10:32 | 13.15801 | 78.01238 | 7347 ft | 209 kts | 359° |
| 2026-04-29 10:32 | 13.17209 | 78.00890 | 7292 ft | 211 kts | 329° |
| 2026-04-29 10:32 | 13.18238 | 77.99838 | 7239 ft | 211 kts | 304° |
| 2026-04-29 10:32 | 13.19001 | 77.98540 | 7208 ft | 213 kts | 300° |
| 2026-04-29 10:33 | 13.19717 | 77.97208 | 7185 ft | 213 kts | 299° |
| 2026-04-29 10:33 | 13.20366 | 77.95839 | 7131 ft | 214 kts | 289° |
| 2026-04-29 10:33 | 13.20648 | 77.94349 | 6998 ft | 212 kts | 272° |
| 2026-04-29 10:33 | 13.20653 | 77.92841 | 6754 ft | 211 kts | 267° |
| 2026-04-29 10:34 | 13.20634 | 77.91332 | 6462 ft | 211 kts | 269° |
| 2026-04-29 10:34 | 13.20644 | 77.89830 | 6168 ft | 209 kts | 269° |
| 2026-04-29 10:34 | 13.20651 | 77.88342 | 5891 ft | 208 kts | 271° |
| 2026-04-29 10:34 | 13.20656 | 77.86861 | 5624 ft | 207 kts | 270° |
| 2026-04-29 10:35 | 13.20661 | 77.85389 | 5375 ft | 206 kts | 271° |
| 2026-04-29 10:35 | 13.20666 | 77.83922 | 5123 ft | 206 kts | 271° |
| 2026-04-29 10:35 | 13.20671 | 77.82454 | 4872 ft | 205 kts | 271° |
| 2026-04-29 10:35 | 13.20676 | 77.81001 | 4589 ft | 203 kts | 271° |
| 2026-04-29 10:36 | 13.20681 | 77.79557 | 4324 ft | 202 kts | 270° |
| 2026-04-29 10:36 | 13.20685 | 77.78119 | 4078 ft | 201 kts | 271° |
| 2026-04-29 10:36 | 13.20690 | 77.76698 | 3825 ft | 195 kts | 270° |
| 2026-04-29 10:36 | 13.20695 | 77.75350 | 3576 ft | 182 kts | 269° |
| 2026-04-29 10:37 | 13.20699 | 77.74095 | 3349 ft | 169 kts | 269° |
| 2026-04-29 10:37 | 13.20701 | 77.72963 | 3116 ft | 155 kts | 269° |
| 2026-04-29 10:37 | 13.20691 | 77.71895 | 2944 ft | 144 kts | 269° |
| 2026-04-29 10:37 | 13.20698 | 77.70950 | 2956 ft | 115 kts | 270° |
| 2026-04-29 10:38 | 13.20703 | 77.70232 | 2973 ft | 89 kts | 270° |
| 2026-04-29 10:38 | 13.20700 | 77.69674 | 2986 ft | 68 kts | 261° |
| 2026-04-29 10:38 | 13.20613 | 77.69454 | 2989 ft | 0 kts | 241° |
| 2026-04-29 10:40 | 13.20605 | 77.69438 | 2990 ft | 4 kts | 241° |
| 2026-04-29 10:40 | 13.20585 | 77.69402 | 2990 ft | 7 kts | 241° |
| 2026-04-29 10:40 | 13.20553 | 77.69355 | 2992 ft | 9 kts | 220° |
| 2026-04-29 10:41 | 13.20486 | 77.69336 | 2992 ft | 12 kts | 182° |
| 2026-04-29 10:41 | 13.20393 | 77.69334 | 2993 ft | 15 kts | 180° |
| 2026-04-29 10:41 | 13.20290 | 77.69357 | 2992 ft | 16 kts | 128° |
| 2026-04-29 10:41 | 13.20273 | 77.69482 | 2990 ft | 20 kts | 90° |
| 2026-04-29 10:42 | 13.20272 | 77.69644 | 2986 ft | 19 kts | 90° |
| 2026-04-29 10:42 | 13.20255 | 77.69675 | 2986 ft | 4 kts | 158° |
| 2026-04-29 10:42 | 13.20215 | 77.69677 | 2986 ft | 7 kts | 185° |
| 2026-04-29 10:42 | 13.20183 | 77.69674 | 2986 ft | 0 kts | 184° |